Sunnyside, North Carolina
Current Conditions -  °F | °C
As of 3:55 AM on Monday 22 Dec 2014 (Local Time) from KMRN Reporting Station
Light Rain Light Rain  
Wind Chill: 40°   Ceiling: 2300
Heat Index: 40°   Visibility: 2.5mi
Dew Point: 39°   Wind: 0mph
Humidity: 96%   Direction: NA
Pressure: 30.18"   Gusts: NA
Location:  35.7567°N, 81.7518°W
Report Text: KMRN 220855Z AUTO 00000KT 2 1/2SM -RA SCT008 OVC023 05/04 A3018 RMK AO2 T00460040
Loading
Personal Weather Stations






























Interactive Weather Map New forecast layout! Learn more

10-Day Weather Forecast

Advertisements
Track Severe Weather on mobile